sensor_id;sensor_type;location;lat;lon;timestamp;pressure;altitude;pressure_sealevel;temperature;humidity
16613;BME280;8419;52.358;9.752;2023-09-12T00:02:17;100583.00;;;31.34;40.52
16613;BME280;8419;52.358;9.752;2023-09-12T00:05:03;100580.00;;;31.28;40.62
16613;BME280;8419;52.358;9.752;2023-09-12T00:07:52;100572.00;;;31.26;40.61
16613;BME280;8419;52.358;9.752;2023-09-12T00:10:38;100575.00;;;31.23;40.62
16613;BME280;8419;52.358;9.752;2023-09-12T00:13:25;100589.00;;;31.20;40.71
16613;BME280;8419;52.358;9.752;2023-09-12T00:16:10;100619.00;;;31.10;40.94
16613;BME280;8419;52.358;9.752;2023-09-12T00:18:57;100618.00;;;31.03;41.13
16613;BME280;8419;52.358;9.752;2023-09-12T00:21:42;100615.00;;;30.97;41.45
16613;BME280;8419;52.358;9.752;2023-09-12T00:24:28;100594.00;;;30.92;41.52
16613;BME280;8419;52.358;9.752;2023-09-12T00:27:13;100567.00;;;30.87;41.60
16613;BME280;8419;52.358;9.752;2023-09-12T00:29:59;100573.00;;;30.78;41.80
16613;BME280;8419;52.358;9.752;2023-09-12T00:32:46;100571.00;;;30.78;41.89
16613;BME280;8419;52.358;9.752;2023-09-12T00:35:32;100571.00;;;30.74;42.04
16613;BME280;8419;52.358;9.752;2023-09-12T00:38:18;100561.00;;;30.72;41.98
16613;BME280;8419;52.358;9.752;2023-09-12T00:41:03;100544.00;;;30.64;42.16
16613;BME280;8419;52.358;9.752;2023-09-12T00:43:49;100543.00;;;30.63;42.25
16613;BME280;8419;52.358;9.752;2023-09-12T00:46:35;100542.00;;;30.56;42.30
16613;BME280;8419;52.358;9.752;2023-09-12T00:49:21;100539.00;;;30.50;42.35
16613;BME280;8419;52.358;9.752;2023-09-12T00:52:08;100532.00;;;30.49;42.35
16613;BME280;8419;52.358;9.752;2023-09-12T00:54:55;100530.00;;;30.51;42.35
16613;BME280;8419;52.358;9.752;2023-09-12T00:57:42;100528.00;;;30.47;42.43
16613;BME280;8419;52.358;9.752;2023-09-12T01:00:29;100532.00;;;30.43;42.57
16613;BME280;8419;52.358;9.752;2023-09-12T01:03:14;100532.00;;;30.43;42.51
16613;BME280;8419;52.358;9.752;2023-09-12T01:06:01;100520.00;;;30.42;42.50
16613;BME280;8419;52.358;9.752;2023-09-12T01:08:49;100522.00;;;30.40;42.54
16613;BME280;8419;52.358;9.752;2023-09-12T01:11:34;100523.00;;;30.41;42.55
16613;BME280;8419;52.358;9.752;2023-09-12T01:14:22;100517.00;;;30.39;42.56
16613;BME280;8419;52.358;9.752;2023-09-12T01:17:08;100516.00;;;30.39;42.58
16613;BME280;8419;52.358;9.752;2023-09-12T01:19:54;100527.00;;;30.38;42.61
16613;BME280;8419;52.358;9.752;2023-09-12T01:22:54;100519.00;;;30.37;42.59
16613;BME280;8419;52.358;9.752;2023-09-12T01:26:02;100514.00;;;30.41;42.56
16613;BME280;8419;52.358;9.752;2023-09-12T01:28:51;100508.00;;;30.35;42.64
16613;BME280;8419;52.358;9.752;2023-09-12T01:31:40;100507.00;;;30.35;42.58
16613;BME280;8419;52.358;9.752;2023-09-12T01:34:27;100517.00;;;30.31;42.62
16613;BME280;8419;52.358;9.752;2023-09-12T01:37:12;100521.00;;;30.30;42.62
16613;BME280;8419;52.358;9.752;2023-09-12T01:39:58;100520.00;;;30.26;42.70
16613;BME280;8419;52.358;9.752;2023-09-12T01:42:46;100528.00;;;30.21;42.75
16613;BME280;8419;52.358;9.752;2023-09-12T01:45:33;100528.00;;;30.15;42.95
16613;BME280;8419;52.358;9.752;2023-09-12T01:48:25;100526.00;;;30.13;42.99
16613;BME280;8419;52.358;9.752;2023-09-12T01:51:13;100535.00;;;30.07;43.11
16613;BME280;8419;52.358;9.752;2023-09-12T01:54:00;100537.00;;;30.06;43.10
16613;BME280;8419;52.358;9.752;2023-09-12T01:56:47;100540.00;;;30.05;43.08
16613;BME280;8419;52.358;9.752;2023-09-12T01:59:33;100552.00;;;30.02;43.23
16613;BME280;8419;52.358;9.752;2023-09-12T02:02:19;100535.00;;;30.02;43.11
16613;BME280;8419;52.358;9.752;2023-09-12T02:05:09;100545.00;;;29.98;43.20
16613;BME280;8419;52.358;9.752;2023-09-12T02:07:55;100549.00;;;29.99;43.23
16613;BME280;8419;52.358;9.752;2023-09-12T02:10:41;100547.00;;;29.98;43.16
16613;BME280;8419;52.358;9.752;2023-09-12T02:13:27;100553.00;;;29.95;43.28
16613;BME280;8419;52.358;9.752;2023-09-12T02:16:13;100560.00;;;29.96;43.20
16613;BME280;8419;52.358;9.752;2023-09-12T02:18:58;100563.00;;;29.91;43.29
16613;BME280;8419;52.358;9.752;2023-09-12T02:21:43;100572.00;;;29.85;43.41
16613;BME280;8419;52.358;9.752;2023-09-12T02:24:29;100570.00;;;29.82;43.53
16613;BME280;8419;52.358;9.752;2023-09-12T02:27:14;100576.00;;;29.73;43.71
16613;BME280;8419;52.358;9.752;2023-09-12T02:30:00;100575.00;;;29.74;43.71
16613;BME280;8419;52.358;9.752;2023-09-12T02:32:46;100578.00;;;29.76;43.72
16613;BME280;8419;52.358;9.752;2023-09-12T02:35:31;100586.00;;;29.74;43.80
16613;BME280;8419;52.358;9.752;2023-09-12T02:38:18;100591.00;;;29.77;43.80
16613;BME280;8419;52.358;9.752;2023-09-12T02:41:03;100613.00;;;29.82;43.87
16613;BME280;8419;52.358;9.752;2023-09-12T02:43:49;100609.00;;;29.83;43.88
16613;BME280;8419;52.358;9.752;2023-09-12T02:46:35;100619.00;;;29.81;44.07
16613;BME280;8419;52.358;9.752;2023-09-12T02:49:21;100622.00;;;29.82;44.10
16613;BME280;8419;52.358;9.752;2023-09-12T02:52:07;100625.00;;;29.81;44.16
16613;BME280;8419;52.358;9.752;2023-09-12T02:54:52;100618.00;;;29.77;44.31
16613;BME280;8419;52.358;9.752;2023-09-12T02:57:38;100623.00;;;29.83;44.23
16613;BME280;8419;52.358;9.752;2023-09-12T03:00:23;100620.00;;;29.78;44.38
16613;BME280;8419;52.358;9.752;2023-09-12T03:03:10;100599.00;;;29.75;44.35
16613;BME280;8419;52.358;9.752;2023-09-12T03:05:59;100617.00;;;29.75;44.38
16613;BME280;8419;52.358;9.752;2023-09-12T03:08:45;100604.00;;;29.71;44.45
16613;BME280;8419;52.358;9.752;2023-09-12T03:11:31;100597.00;;;29.69;44.42
16613;BME280;8419;52.358;9.752;2023-09-12T03:14:17;100583.00;;;29.68;44.44
16613;BME280;8419;52.358;9.752;2023-09-12T03:17:04;100561.00;;;29.75;44.28
16613;BME280;8419;52.358;9.752;2023-09-12T03:19:49;100564.00;;;29.79;44.29
16613;BME280;8419;52.358;9.752;2023-09-12T03:22:35;100566.00;;;29.78;44.29
16613;BME280;8419;52.358;9.752;2023-09-12T03:25:23;100573.00;;;29.69;44.41
16613;BME280;8419;52.358;9.752;2023-09-12T03:28:10;100576.00;;;29.75;44.33
16613;BME280;8419;52.358;9.752;2023-09-12T03:31:03;100587.00;;;29.78;44.26
16613;BME280;8419;52.358;9.752;2023-09-12T03:33:49;100586.00;;;29.84;44.14
16613;BME280;8419;52.358;9.752;2023-09-12T03:36:35;100599.00;;;29.80;44.19
16613;BME280;8419;52.358;9.752;2023-09-12T03:39:21;100607.00;;;29.85;44.11
16613;BME280;8419;52.358;9.752;2023-09-12T03:42:07;100630.00;;;29.84;44.13
16613;BME280;8419;52.358;9.752;2023-09-12T03:44:52;100650.00;;;29.86;44.14
16613;BME280;8419;52.358;9.752;2023-09-12T03:47:40;100664.00;;;29.85;44.25
16613;BME280;8419;52.358;9.752;2023-09-12T03:50:26;100674.00;;;29.83;44.39
16613;BME280;8419;52.358;9.752;2023-09-12T03:53:14;100677.00;;;29.73;44.64
16613;BME280;8419;52.358;9.752;2023-09-12T03:55:59;100666.00;;;29.66;44.80
16613;BME280;8419;52.358;9.752;2023-09-12T03:58:45;100667.00;;;29.63;44.86
16613;BME280;8419;52.358;9.752;2023-09-12T04:01:30;100672.00;;;29.68;44.73
16613;BME280;8419;52.358;9.752;2023-09-12T04:04:16;100676.00;;;29.67;44.80
16613;BME280;8419;52.358;9.752;2023-09-12T04:07:01;100683.00;;;29.58;45.04
16613;BME280;8419;52.358;9.752;2023-09-12T04:09:47;100689.00;;;29.57;45.02
16613;BME280;8419;52.358;9.752;2023-09-12T04:12:33;100695.00;;;29.52;45.18
16613;BME280;8419;52.358;9.752;2023-09-12T04:15:19;100671.00;;;29.53;45.14
16613;BME280;8419;52.358;9.752;2023-09-12T04:18:05;100646.00;;;29.46;45.26
16613;BME280;8419;52.358;9.752;2023-09-12T04:20:51;100615.00;;;29.44;45.19
16613;BME280;8419;52.358;9.752;2023-09-12T04:23:40;100596.00;;;29.44;45.19
16613;BME280;8419;52.358;9.752;2023-09-12T04:26:26;100582.00;;;29.50;45.12
16613;BME280;8419;52.358;9.752;2023-09-12T04:29:11;100592.00;;;29.59;44.91
16613;BME280;8419;52.358;9.752;2023-09-12T04:31:57;100576.00;;;29.60;44.89
16613;BME280;8419;52.358;9.752;2023-09-12T04:34:44;100589.00;;;29.64;44.75
16613;BME280;8419;52.358;9.752;2023-09-12T04:37:30;100593.00;;;29.65;44.72
16613;BME280;8419;52.358;9.752;2023-09-12T04:40:16;100588.00;;;29.68;44.64
16613;BME280;8419;52.358;9.752;2023-09-12T04:43:02;100574.00;;;29.73;44.54
16613;BME280;8419;52.358;9.752;2023-09-12T04:45:48;100571.00;;;29.78;44.46
16613;BME280;8419;52.358;9.752;2023-09-12T04:48:33;100573.00;;;29.82;44.36
16613;BME280;8419;52.358;9.752;2023-09-12T04:51:19;100564.00;;;29.87;44.22
16613;BME280;8419;52.358;9.752;2023-09-12T04:54:05;100568.00;;;29.89;44.19
16613;BME280;8419;52.358;9.752;2023-09-12T04:56:51;100569.00;;;29.90;44.13
16613;BME280;8419;52.358;9.752;2023-09-12T04:59:40;100569.00;;;29.93;44.01
16613;BME280;8419;52.358;9.752;2023-09-12T05:02:26;100559.00;;;29.97;43.92
16613;BME280;8419;52.358;9.752;2023-09-12T05:05:12;100557.00;;;29.99;43.85
16613;BME280;8419;52.358;9.752;2023-09-12T05:07:58;100558.00;;;30.01;43.73
16613;BME280;8419;52.358;9.752;2023-09-12T05:10:46;100554.00;;;30.05;43.65
16613;BME280;8419;52.358;9.752;2023-09-12T05:13:34;100572.00;;;30.11;43.52
16613;BME280;8419;52.358;9.752;2023-09-12T05:16:20;100583.00;;;30.16;43.35
16613;BME280;8419;52.358;9.752;2023-09-12T05:19:05;100597.00;;;30.20;43.20
16613;BME280;8419;52.358;9.752;2023-09-12T05:21:51;100614.00;;;30.19;43.07
16613;BME280;8419;52.358;9.752;2023-09-12T05:24:36;100612.00;;;30.16;43.06
16613;BME280;8419;52.358;9.752;2023-09-12T05:27:22;100632.00;;;30.15;43.10
16613;BME280;8419;52.358;9.752;2023-09-12T05:30:12;100639.00;;;30.13;43.06
16613;BME280;8419;52.358;9.752;2023-09-12T05:32:57;100679.00;;;30.07;43.11
16613;BME280;8419;52.358;9.752;2023-09-12T05:35:43;100653.00;;;29.96;43.24
16613;BME280;8419;52.358;9.752;2023-09-12T05:38:29;100663.00;;;29.92;43.22
16613;BME280;8419;52.358;9.752;2023-09-12T05:41:15;100680.00;;;29.91;43.17
16613;BME280;8419;52.358;9.752;2023-09-12T05:44:01;100679.00;;;29.84;43.23
16613;BME280;8419;52.358;9.752;2023-09-12T05:46:47;100669.00;;;29.84;43.21
16613;BME280;8419;52.358;9.752;2023-09-12T05:49:33;100693.00;;;29.83;43.17
16613;BME280;8419;52.358;9.752;2023-09-12T05:52:19;100707.00;;;29.75;43.23
16613;BME280;8419;52.358;9.752;2023-09-12T05:55:06;100689.00;;;29.65;43.25
16613;BME280;8419;52.358;9.752;2023-09-12T05:57:52;100679.00;;;29.58;43.27
16613;BME280;8419;52.358;9.752;2023-09-12T06:00:38;100701.00;;;29.43;43.33
16613;BME280;8419;52.358;9.752;2023-09-12T06:03:24;100736.00;;;28.71;44.83
16613;BME280;8419;52.358;9.752;2023-09-12T06:06:11;100730.00;;;28.20;45.69
16613;BME280;8419;52.358;9.752;2023-09-12T06:08:58;100720.00;;;27.81;46.49
16613;BME280;8419;52.358;9.752;2023-09-12T06:11:44;100709.00;;;27.53;46.64
16613;BME280;8419;52.358;9.752;2023-09-12T06:14:29;100680.00;;;27.26;47.16
16613;BME280;8419;52.358;9.752;2023-09-12T06:17:14;100690.00;;;27.11;47.71
16613;BME280;8419;52.358;9.752;2023-09-12T06:20:00;100678.00;;;27.07;47.70
16613;BME280;8419;52.358;9.752;2023-09-12T06:22:45;100691.00;;;27.06;47.69
16613;BME280;8419;52.358;9.752;2023-09-12T06:25:31;100686.00;;;27.07;47.77
16613;BME280;8419;52.358;9.752;2023-09-12T06:28:25;100694.00;;;27.05;47.87
16613;BME280;8419;52.358;9.752;2023-09-12T06:31:11;100672.00;;;27.00;48.09
16613;BME280;8419;52.358;9.752;2023-09-12T06:33:58;100651.00;;;27.07;48.16
16613;BME280;8419;52.358;9.752;2023-09-12T06:36:44;100639.00;;;27.16;48.23
16613;BME280;8419;52.358;9.752;2023-09-12T06:39:30;100640.00;;;27.25;48.21
16613;BME280;8419;52.358;9.752;2023-09-12T06:42:17;100641.00;;;27.32;48.34
16613;BME280;8419;52.358;9.752;2023-09-12T06:45:04;100646.00;;;27.40;48.45
16613;BME280;8419;52.358;9.752;2023-09-12T06:47:52;100633.00;;;27.42;48.54
16613;BME280;8419;52.358;9.752;2023-09-12T06:50:37;100624.00;;;27.45;48.62
16613;BME280;8419;52.358;9.752;2023-09-12T06:53:23;100613.00;;;27.51;48.71
16613;BME280;8419;52.358;9.752;2023-09-12T06:56:10;100613.00;;;27.56;48.75
16613;BME280;8419;52.358;9.752;2023-09-12T06:58:56;100597.00;;;27.64;48.82
16613;BME280;8419;52.358;9.752;2023-09-12T07:01:44;100589.00;;;27.76;48.81
16613;BME280;8419;52.358;9.752;2023-09-12T07:04:30;100580.00;;;27.82;48.91
16613;BME280;8419;52.358;9.752;2023-09-12T07:07:16;100569.00;;;27.93;48.95
16613;BME280;8419;52.358;9.752;2023-09-12T07:10:01;100574.00;;;28.06;48.96
16613;BME280;8419;52.358;9.752;2023-09-12T07:12:48;100570.00;;;28.17;49.01
16613;BME280;8419;52.358;9.752;2023-09-12T07:15:37;100574.00;;;28.25;49.02
16613;BME280;8419;52.358;9.752;2023-09-12T07:18:23;100566.00;;;28.40;48.97
16613;BME280;8419;52.358;9.752;2023-09-12T07:21:10;100564.00;;;28.44;48.96
16613;BME280;8419;52.358;9.752;2023-09-12T07:23:58;100560.00;;;28.46;48.98
16613;BME280;8419;52.358;9.752;2023-09-12T07:26:44;100552.00;;;28.51;48.94
16613;BME280;8419;52.358;9.752;2023-09-12T07:29:31;100528.00;;;28.53;49.02
16613;BME280;8419;52.358;9.752;2023-09-12T07:32:17;100529.00;;;28.64;48.94
16613;BME280;8419;52.358;9.752;2023-09-12T07:35:04;100522.00;;;28.79;48.81
16613;BME280;8419;52.358;9.752;2023-09-12T07:37:49;100528.00;;;28.86;48.87
16613;BME280;8419;52.358;9.752;2023-09-12T07:40:35;100560.00;;;28.96;48.85
16613;BME280;8419;52.358;9.752;2023-09-12T07:43:23;100591.00;;;29.18;48.53
16613;BME280;8419;52.358;9.752;2023-09-12T07:46:08;100606.00;;;29.23;48.39
16613;BME280;8419;52.358;9.752;2023-09-12T07:48:54;100618.00;;;29.27;48.44
16613;BME280;8419;52.358;9.752;2023-09-12T07:51:39;100611.00;;;29.40;48.44
16613;BME280;8419;52.358;9.752;2023-09-12T07:54:25;100611.00;;;29.64;48.14
16613;BME280;8419;52.358;9.752;2023-09-12T07:57:12;100588.00;;;29.77;48.09
16613;BME280;8419;52.358;9.752;2023-09-12T07:59:57;100588.00;;;29.88;48.05
16613;BME280;8419;52.358;9.752;2023-09-12T08:02:42;100596.00;;;30.09;47.83
16613;BME280;8419;52.358;9.752;2023-09-12T08:05:28;100600.00;;;30.22;47.70
16613;BME280;8419;52.358;9.752;2023-09-12T08:08:13;100610.00;;;30.42;47.38
16613;BME280;8419;52.358;9.752;2023-09-12T08:10:59;100615.00;;;30.36;47.43
16613;BME280;8419;52.358;9.752;2023-09-12T08:13:48;100663.00;;;30.30;47.34
16613;BME280;8419;52.358;9.752;2023-09-12T08:16:34;100674.00;;;30.24;47.41
16613;BME280;8419;52.358;9.752;2023-09-12T08:19:19;100693.00;;;30.05;47.59
16613;BME280;8419;52.358;9.752;2023-09-12T08:22:07;100710.00;;;29.89;47.85
16613;BME280;8419;52.358;9.752;2023-09-12T08:24:53;100707.00;;;29.71;48.18
16613;BME280;8419;52.358;9.752;2023-09-12T08:27:38;100730.00;;;29.62;48.36
16613;BME280;8419;52.358;9.752;2023-09-12T08:30:24;100732.00;;;29.57;48.49
16613;BME280;8419;52.358;9.752;2023-09-12T08:33:10;100755.00;;;29.51;48.62
16613;BME280;8419;52.358;9.752;2023-09-12T08:35:55;100747.00;;;29.40;48.90
16613;BME280;8419;52.358;9.752;2023-09-12T08:38:41;100754.00;;;29.47;48.81
16613;BME280;8419;52.358;9.752;2023-09-12T08:41:27;100759.00;;;29.47;48.99
16613;BME280;8419;52.358;9.752;2023-09-12T08:44:13;100759.00;;;29.50;49.01
16613;BME280;8419;52.358;9.752;2023-09-12T08:47:01;100748.00;;;29.47;49.14
16613;BME280;8419;52.358;9.752;2023-09-12T08:49:47;100749.00;;;29.59;48.98
16613;BME280;8419;52.358;9.752;2023-09-12T08:52:33;100757.00;;;29.59;49.09
16613;BME280;8419;52.358;9.752;2023-09-12T08:55:20;100761.00;;;29.56;49.11
16613;BME280;8419;52.358;9.752;2023-09-12T08:58:06;100758.00;;;29.56;49.18
16613;BME280;8419;52.358;9.752;2023-09-12T09:00:52;100753.00;;;29.56;49.20
16613;BME280;8419;52.358;9.752;2023-09-12T09:03:38;100750.00;;;29.59;49.11
16613;BME280;8419;52.358;9.752;2023-09-12T09:06:25;100770.00;;;29.80;48.78
16613;BME280;8419;52.358;9.752;2023-09-12T09:09:12;100784.00;;;29.82;48.57
16613;BME280;8419;52.358;9.752;2023-09-12T09:11:57;100791.00;;;29.73;48.40
16613;BME280;8419;52.358;9.752;2023-09-12T09:14:43;100794.00;;;29.58;48.35
16613;BME280;8419;52.358;9.752;2023-09-12T09:17:28;100793.00;;;29.64;48.23
16613;BME280;8419;52.358;9.752;2023-09-12T09:20:22;100805.00;;;29.63;48.07
16613;BME280;8419;52.358;9.752;2023-09-12T09:23:09;100807.00;;;29.37;48.37
16613;BME280;8419;52.358;9.752;2023-09-12T09:25:54;100802.00;;;29.10;48.37
16613;BME280;8419;52.358;9.752;2023-09-12T09:28:41;100803.00;;;28.95;48.56
16613;BME280;8419;52.358;9.752;2023-09-12T09:31:27;100833.00;;;28.80;48.74
16613;BME280;8419;52.358;9.752;2023-09-12T09:34:14;100833.00;;;28.67;48.68
16613;BME280;8419;52.358;9.752;2023-09-12T09:37:03;100808.00;;;28.55;48.81
16613;BME280;8419;52.358;9.752;2023-09-12T09:39:49;100806.00;;;28.44;48.90
16613;BME280;8419;52.358;9.752;2023-09-12T09:42:38;100821.00;;;28.24;49.17
16613;BME280;8419;52.358;9.752;2023-09-12T09:45:24;100794.00;;;28.14;49.25
16613;BME280;8419;52.358;9.752;2023-09-12T09:48:10;100756.00;;;28.01;49.45
16613;BME280;8419;52.358;9.752;2023-09-12T09:51:02;100772.00;;;27.81;49.81
16613;BME280;8419;52.358;9.752;2023-09-12T09:53:51;100772.00;;;27.68;50.15
16613;BME280;8419;52.358;9.752;2023-09-12T09:56:46;100776.00;;;27.67;50.22
16613;BME280;8419;52.358;9.752;2023-09-12T09:59:31;100797.00;;;27.70;50.26
16613;BME280;8419;52.358;9.752;2023-09-12T10:02:18;100790.00;;;27.72;50.13
16613;BME280;8419;52.358;9.752;2023-09-12T10:05:10;100759.00;;;27.60;50.46
16613;BME280;8419;52.358;9.752;2023-09-12T10:07:56;100789.00;;;27.68;50.41
16613;BME280;8419;52.358;9.752;2023-09-12T10:10:43;100775.00;;;27.68;50.44
16613;BME280;8419;52.358;9.752;2023-09-12T10:13:30;100764.00;;;27.73;50.43
16613;BME280;8419;52.358;9.752;2023-09-12T10:16:17;100780.00;;;27.86;50.26
16613;BME280;8419;52.358;9.752;2023-09-12T10:19:12;100758.00;;;27.99;50.09
16613;BME280;8419;52.358;9.752;2023-09-12T10:22:06;100752.00;;;28.22;49.96
16613;BME280;8419;52.358;9.752;2023-09-12T10:24:52;100775.00;;;28.39;49.75
16613;BME280;8419;52.358;9.752;2023-09-12T10:27:42;100768.00;;;28.41;49.77
16613;BME280;8419;52.358;9.752;2023-09-12T10:30:29;100777.00;;;28.40;49.76
16613;BME280;8419;52.358;9.752;2023-09-12T10:33:16;100761.00;;;28.35;49.81
16613;BME280;8419;52.358;9.752;2023-09-12T10:36:04;100757.00;;;28.35;49.78
16613;BME280;8419;52.358;9.752;2023-09-12T10:38:51;100749.00;;;28.36;49.79
16613;BME280;8419;52.358;9.752;2023-09-12T10:41:38;100739.00;;;28.41;49.72
16613;BME280;8419;52.358;9.752;2023-09-12T10:44:25;100744.00;;;28.40;49.77
16613;BME280;8419;52.358;9.752;2023-09-12T10:47:15;100731.00;;;28.33;49.79
16613;BME280;8419;52.358;9.752;2023-09-12T10:50:03;100729.00;;;28.42;49.71
16613;BME280;8419;52.358;9.752;2023-09-12T10:52:50;100747.00;;;28.51;49.65
16613;BME280;8419;52.358;9.752;2023-09-12T10:55:36;100757.00;;;28.54;49.68
16613;BME280;8419;52.358;9.752;2023-09-12T10:58:22;100743.00;;;28.64;49.58
16613;BME280;8419;52.358;9.752;2023-09-12T11:01:25;100749.00;;;28.72;49.43
16613;BME280;8419;52.358;9.752;2023-09-12T11:04:40;100745.00;;;28.80;49.40
16613;BME280;8419;52.358;9.752;2023-09-12T11:07:46;100741.00;;;28.85;49.38
16613;BME280;8419;52.358;9.752;2023-09-12T11:10:32;100733.00;;;28.99;49.30
16613;BME280;8419;52.358;9.752;2023-09-12T11:13:18;100727.00;;;29.08;49.26
16613;BME280;8419;52.358;9.752;2023-09-12T11:16:12;100763.00;;;29.23;48.98
16613;BME280;8419;52.358;9.752;2023-09-12T11:19:17;100779.00;;;29.18;48.96
16613;BME280;8419;52.358;9.752;2023-09-12T11:22:21;100813.00;;;29.04;49.03
16613;BME280;8419;52.358;9.752;2023-09-12T11:25:18;100799.00;;;28.87;49.21
16613;BME280;8419;52.358;9.752;2023-09-12T11:28:06;100803.00;;;28.72;49.41
16613;BME280;8419;52.358;9.752;2023-09-12T11:30:58;100791.00;;;28.64;49.52
16613;BME280;8419;52.358;9.752;2023-09-12T11:33:44;100801.00;;;28.64;49.49
16613;BME280;8419;52.358;9.752;2023-09-12T11:36:30;100823.00;;;28.61;49.41
16613;BME280;8419;52.358;9.752;2023-09-12T11:39:27;100797.00;;;28.37;49.51
16613;BME280;8419;52.358;9.752;2023-09-12T11:42:15;100815.00;;;27.99;49.88
16613;BME280;8419;52.358;9.752;2023-09-12T11:45:01;100818.00;;;27.71;50.30
16613;BME280;8419;52.358;9.752;2023-09-12T11:47:47;100803.00;;;27.56;50.58
16613;BME280;8419;52.358;9.752;2023-09-12T11:50:34;100814.00;;;27.45;50.80
16613;BME280;8419;52.358;9.752;2023-09-12T11:53:22;100834.00;;;27.44;50.87
16613;BME280;8419;52.358;9.752;2023-09-12T11:56:15;100830.00;;;27.38;51.00
16613;BME280;8419;52.358;9.752;2023-09-12T11:59:03;100808.00;;;27.31;51.15
16613;BME280;8419;52.358;9.752;2023-09-12T12:01:50;100782.00;;;27.30;51.17
16613;BME280;8419;52.358;9.752;2023-09-12T12:04:37;100743.00;;;27.43;51.13
16613;BME280;8419;52.358;9.752;2023-09-12T12:07:25;100729.00;;;27.52;51.13
16613;BME280;8419;52.358;9.752;2023-09-12T12:10:12;100708.00;;;27.64;51.01
16613;BME280;8419;52.358;9.752;2023-09-12T12:12:58;100710.00;;;27.62;51.08
16613;BME280;8419;52.358;9.752;2023-09-12T12:15:46;100698.00;;;27.66;51.06
16613;BME280;8419;52.358;9.752;2023-09-12T12:18:32;100694.00;;;27.64;51.23
16613;BME280;8419;52.358;9.752;2023-09-12T12:21:23;100682.00;;;27.63;51.22
16613;BME280;8419;52.358;9.752;2023-09-12T12:24:11;100681.00;;;27.72;51.24
16613;BME280;8419;52.358;9.752;2023-09-12T12:27:01;100666.00;;;27.89;51.10
16613;BME280;8419;52.358;9.752;2023-09-12T12:29:48;100662.00;;;28.00;51.04
16613;BME280;8419;52.358;9.752;2023-09-12T12:32:41;100656.00;;;28.05;51.00
16613;BME280;8419;52.358;9.752;2023-09-12T12:35:27;100660.00;;;28.10;50.83
16613;BME280;8419;52.358;9.752;2023-09-12T12:38:14;100660.00;;;28.05;50.91
16613;BME280;8419;52.358;9.752;2023-09-12T12:41:01;100662.00;;;28.07;50.99
16613;BME280;8419;52.358;9.752;2023-09-12T12:43:51;100645.00;;;28.11;50.96
16613;BME280;8419;52.358;9.752;2023-09-12T12:46:48;100642.00;;;28.09;51.11
16613;BME280;8419;52.358;9.752;2023-09-12T12:49:38;100654.00;;;28.25;50.99
16613;BME280;8419;52.358;9.752;2023-09-12T12:52:24;100658.00;;;28.43;50.83
16613;BME280;8419;52.358;9.752;2023-09-12T12:55:12;100650.00;;;28.61;50.67
16613;BME280;8419;52.358;9.752;2023-09-12T12:57:58;100653.00;;;28.80;50.56
16613;BME280;8419;52.358;9.752;2023-09-12T13:00:45;100665.00;;;28.97;50.44
16613;BME280;8419;52.358;9.752;2023-09-12T13:03:31;100668.00;;;29.18;50.26
16613;BME280;8419;52.358;9.752;2023-09-12T13:06:23;100660.00;;;29.40;49.92
16613;BME280;8419;52.358;9.752;2023-09-12T13:09:11;100657.00;;;29.58;49.72
16613;BME280;8419;52.358;9.752;2023-09-12T13:11:57;100648.00;;;29.74;49.67
16613;BME280;8419;52.358;9.752;2023-09-12T13:14:45;100652.00;;;30.08;49.29
16613;BME280;8419;52.358;9.752;2023-09-12T13:17:31;100643.00;;;30.44;48.87
16613;BME280;8419;52.358;9.752;2023-09-12T13:20:19;100640.00;;;30.82;48.28
16613;BME280;8419;52.358;9.752;2023-09-12T13:23:05;100639.00;;;31.11;47.88
16613;BME280;8419;52.358;9.752;2023-09-12T13:25:51;100628.00;;;31.41;47.38
16613;BME280;8419;52.358;9.752;2023-09-12T13:28:38;100631.00;;;31.57;46.99
16613;BME280;8419;52.358;9.752;2023-09-12T13:31:24;100627.00;;;31.76;46.53
16613;BME280;8419;52.358;9.752;2023-09-12T13:34:11;100634.00;;;31.94;46.19
16613;BME280;8419;52.358;9.752;2023-09-12T13:36:58;100629.00;;;32.24;45.72
16613;BME280;8419;52.358;9.752;2023-09-12T13:39:43;100629.00;;;32.21;45.80
16613;BME280;8419;52.358;9.752;2023-09-12T13:42:33;100634.00;;;32.47;45.30
16613;BME280;8419;52.358;9.752;2023-09-12T13:45:19;100636.00;;;32.38;45.28
16613;BME280;8419;52.358;9.752;2023-09-12T13:48:18;100638.00;;;32.53;44.99
16613;BME280;8419;52.358;9.752;2023-09-12T13:51:04;100627.00;;;32.77;44.64
16613;BME280;8419;52.358;9.752;2023-09-12T13:53:51;100631.00;;;32.91;44.27
16613;BME280;8419;52.358;9.752;2023-09-12T13:56:37;100633.00;;;32.93;44.17
16613;BME280;8419;52.358;9.752;2023-09-12T13:59:23;100635.00;;;33.03;43.96
16613;BME280;8419;52.358;9.752;2023-09-12T14:02:09;100629.00;;;33.05;43.75
16613;BME280;8419;52.358;9.752;2023-09-12T14:04:56;100635.00;;;33.05;43.68
16613;BME280;8419;52.358;9.752;2023-09-12T14:07:42;100631.00;;;33.21;43.38
16613;BME280;8419;52.358;9.752;2023-09-12T14:10:31;100636.00;;;33.31;43.19
16613;BME280;8419;52.358;9.752;2023-09-12T14:13:17;100632.00;;;33.53;42.71
16613;BME280;8419;52.358;9.752;2023-09-12T14:16:04;100638.00;;;33.45;42.71
16613;BME280;8419;52.358;9.752;2023-09-12T14:18:52;100636.00;;;33.44;42.49
16613;BME280;8419;52.358;9.752;2023-09-12T14:21:38;100644.00;;;33.42;42.47
16613;BME280;8419;52.358;9.752;2023-09-12T14:24:26;100641.00;;;33.59;42.04
16613;BME280;8419;52.358;9.752;2023-09-12T14:27:11;100647.00;;;33.88;41.43
16613;BME280;8419;52.358;9.752;2023-09-12T14:29:57;100642.00;;;34.01;40.93
16613;BME280;8419;52.358;9.752;2023-09-12T14:32:45;100646.00;;;33.83;41.16
16613;BME280;8419;52.358;9.752;2023-09-12T14:35:33;100643.00;;;33.53;41.49
16613;BME280;8419;52.358;9.752;2023-09-12T14:38:18;100651.00;;;33.43;41.53
16613;BME280;8419;52.358;9.752;2023-09-12T14:41:04;100656.00;;;33.46;41.39
16613;BME280;8419;52.358;9.752;2023-09-12T14:43:50;100646.00;;;33.37;41.47
16613;BME280;8419;52.358;9.752;2023-09-12T14:46:38;100646.00;;;33.43;41.24